createdAt,value
2018-09-19T00:02:07.830Z,14.30
2018-09-19T00:04:37.067Z,14.25
2018-09-19T00:07:06.297Z,14.18
2018-09-19T00:09:35.527Z,13.97
2018-09-19T00:12:04.793Z,13.88
2018-09-19T00:14:33.977Z,13.79
2018-09-19T00:17:03.480Z,13.64
2018-09-19T00:19:32.690Z,13.50
2018-09-19T00:22:01.945Z,13.40
2018-09-19T00:24:31.325Z,13.35
2018-09-19T00:27:00.543Z,13.34
2018-09-19T00:29:29.753Z,13.34
2018-09-19T00:31:58.974Z,13.50
2018-09-19T00:34:28.235Z,13.72
2018-09-19T00:36:57.442Z,13.43
2018-09-19T00:39:26.681Z,13.25
2018-09-19T00:41:55.915Z,13.22
2018-09-19T00:44:25.183Z,13.16
2018-09-19T00:46:54.415Z,13.10
2018-09-19T00:49:23.639Z,13.01
2018-09-19T00:51:52.859Z,13.03
2018-09-19T00:54:22.085Z,13.26
2018-09-19T00:56:51.311Z,13.33
2018-09-19T00:59:20.574Z,13.32
2018-09-19T01:01:49.853Z,13.29
2018-09-19T01:04:19.081Z,13.28
2018-09-19T01:06:48.319Z,13.27
2018-09-19T01:09:17.561Z,13.28
2018-09-19T01:11:46.793Z,13.27
2018-09-19T01:14:16.004Z,13.21
2018-09-19T01:16:45.225Z,13.20
2018-09-19T01:19:14.470Z,13.20
2018-09-19T01:21:43.700Z,13.13
2018-09-19T01:24:12.943Z,13.43
2018-09-19T01:26:42.174Z,13.53
2018-09-19T01:29:11.397Z,13.48
2018-09-19T01:31:40.666Z,13.41
2018-09-19T01:34:09.967Z,13.42
2018-09-19T01:36:39.151Z,13.58
2018-09-19T01:39:08.493Z,13.84
2018-09-19T01:41:37.740Z,13.70
2018-09-19T01:44:06.984Z,13.67
2018-09-19T01:46:36.217Z,13.82
2018-09-19T01:49:05.485Z,13.77
2018-09-19T01:51:34.711Z,13.69
2018-09-19T01:54:03.954Z,13.90
2018-09-19T01:56:33.167Z,14.09
2018-09-19T01:59:02.793Z,13.83
2018-09-19T02:01:32.045Z,13.83
2018-09-19T02:04:01.266Z,14.06
2018-09-19T02:06:30.499Z,13.88
2018-09-19T02:08:59.737Z,13.71
2018-09-19T02:11:28.946Z,13.59
2018-09-19T02:13:58.200Z,13.47
2018-09-19T02:16:27.419Z,13.35
2018-09-19T02:18:56.635Z,13.35
2018-09-19T02:21:25.877Z,13.29
2018-09-19T02:23:55.091Z,13.25
2018-09-19T02:26:24.314Z,13.16
2018-09-19T02:28:53.540Z,13.09
2018-09-19T02:31:22.781Z,13.07
2018-09-19T02:33:52.013Z,13.07
2018-09-19T02:36:27.043Z,13.24
2018-09-19T02:38:57.455Z,13.03
2018-09-19T02:41:26.696Z,13.00
2018-09-19T02:43:56.031Z,12.91
2018-09-19T02:46:25.254Z,12.79
2018-09-19T02:48:54.485Z,13.13
2018-09-19T02:51:23.728Z,12.96
2018-09-19T02:53:52.943Z,12.86
2018-09-19T02:56:22.168Z,12.87
2018-09-19T02:58:51.381Z,13.01
2018-09-19T03:01:20.598Z,12.73
2018-09-19T03:03:49.818Z,12.52
2018-09-19T03:06:19.053Z,12.50
2018-09-19T03:08:48.283Z,12.51
2018-09-19T03:11:17.525Z,12.45
2018-09-19T03:13:46.762Z,12.42
2018-09-19T03:16:15.986Z,12.77
2018-09-19T03:18:45.215Z,12.59
2018-09-19T03:21:14.446Z,12.49
2018-09-19T03:23:43.687Z,12.36
2018-09-19T03:26:12.924Z,12.22
2018-09-19T03:28:42.183Z,12.15
2018-09-19T03:31:11.419Z,12.17
2018-09-19T03:33:40.636Z,12.28
2018-09-19T03:36:09.873Z,12.05
2018-09-19T03:38:39.088Z,11.99
2018-09-19T03:41:08.362Z,11.92
2018-09-19T03:43:37.591Z,11.88
2018-09-19T03:46:06.872Z,11.82
2018-09-19T03:48:36.090Z,11.77
2018-09-19T03:51:05.501Z,11.73
2018-09-19T03:53:34.744Z,11.74
2018-09-19T03:56:03.997Z,11.69
2018-09-19T03:58:33.232Z,11.65
2018-09-19T04:01:02.886Z,11.65
2018-09-19T04:03:32.150Z,11.95
2018-09-19T04:06:01.379Z,11.99
2018-09-19T04:08:31.326Z,11.91
2018-09-19T04:11:00.552Z,11.67
2018-09-19T04:13:36.230Z,11.68
2018-09-19T04:16:05.458Z,11.52
2018-09-19T04:18:34.682Z,11.59
2018-09-19T04:21:03.910Z,11.51
2018-09-19T04:23:33.138Z,11.35
2018-09-19T04:26:02.392Z,11.30
2018-09-19T04:28:31.643Z,11.24
2018-09-19T04:31:00.918Z,11.29
2018-09-19T04:33:30.163Z,11.29
2018-09-19T04:36:00.127Z,11.27
2018-09-19T04:38:29.366Z,11.20
2018-09-19T04:40:58.602Z,11.37
2018-09-19T04:43:27.864Z,11.30
2018-09-19T04:45:57.122Z,11.32
2018-09-19T04:48:26.369Z,11.26
2018-09-19T04:50:55.594Z,11.56
2018-09-19T04:53:24.864Z,11.51
2018-09-19T04:55:54.070Z,11.30
2018-09-19T04:58:23.323Z,11.21
2018-09-19T05:00:52.588Z,11.19
2018-09-19T05:03:21.822Z,11.16
2018-09-19T05:05:51.153Z,11.28
2018-09-19T05:08:20.280Z,11.29
2018-09-19T05:10:49.498Z,11.20
2018-09-19T05:13:18.730Z,11.18
2018-09-19T05:15:48.068Z,11.18
2018-09-19T05:18:17.365Z,11.20
2018-09-19T05:20:46.614Z,11.24
2018-09-19T05:23:15.834Z,11.16
2018-09-19T05:25:45.089Z,11.17
2018-09-19T05:28:14.341Z,11.30
2018-09-19T05:30:43.598Z,11.41
2018-09-19T05:33:12.894Z,11.60
2018-09-19T05:35:42.230Z,11.71
2018-09-19T05:38:11.448Z,11.64
2018-09-19T05:40:40.662Z,11.65
2018-09-19T05:43:09.899Z,11.91
2018-09-19T05:45:39.127Z,11.96
2018-09-19T05:48:08.394Z,12.22
2018-09-19T05:50:37.620Z,12.26
2018-09-19T05:53:06.863Z,12.47
2018-09-19T05:55:36.088Z,12.53
2018-09-19T05:58:05.323Z,12.72
2018-09-19T06:00:34.537Z,14.06
2018-09-19T06:03:03.751Z,17.12
2018-09-19T06:05:32.973Z,19.13
2018-09-19T06:08:02.261Z,19.60
2018-09-19T06:10:31.473Z,21.36
2018-09-19T06:13:00.797Z,22.49
2018-09-19T06:15:29.938Z,23.31
2018-09-19T06:17:59.188Z,24.76
2018-09-19T06:20:28.390Z,24.41
2018-09-19T06:22:57.671Z,23.67
2018-09-19T06:25:26.947Z,23.87
2018-09-19T06:27:56.193Z,24.62
2018-09-19T06:30:25.424Z,24.60
2018-09-19T06:32:54.710Z,24.44
2018-09-19T06:35:23.937Z,25.06
2018-09-19T06:37:53.178Z,26.16
2018-09-19T06:40:22.437Z,27.99
2018-09-19T06:42:51.646Z,26.92
2018-09-19T06:45:20.942Z,27.41
2018-09-19T06:47:50.239Z,28.23
2018-09-19T06:50:19.479Z,27.97
2018-09-19T06:52:48.702Z,28.83
2018-09-19T06:55:17.934Z,29.87
2018-09-19T06:57:47.224Z,30.73
2018-09-19T07:00:16.475Z,28.99
2018-09-19T07:02:45.745Z,28.80
2018-09-19T07:05:14.998Z,29.03
2018-09-19T07:07:44.250Z,28.85
2018-09-19T07:10:13.471Z,28.00
2018-09-19T07:12:42.708Z,28.22
2018-09-19T07:15:11.915Z,28.39
2018-09-19T07:17:41.130Z,29.77
2018-09-19T07:20:10.463Z,29.93
2018-09-19T07:22:39.699Z,28.15
2018-09-19T07:25:08.960Z,27.82
2018-09-19T07:27:38.158Z,28.20
2018-09-19T07:30:07.644Z,29.65
2018-09-19T07:32:36.974Z,29.84
2018-09-19T07:35:06.326Z,27.93
2018-09-19T07:37:35.563Z,24.99
2018-09-19T07:40:04.800Z,23.95
2018-09-19T07:42:34.158Z,24.09
2018-09-19T07:45:03.438Z,23.49
2018-09-19T07:47:32.650Z,22.29
2018-09-19T07:50:01.878Z,22.73
2018-09-19T07:52:31.107Z,23.44
2018-09-19T07:55:00.333Z,24.01
2018-09-19T07:57:29.554Z,25.86
2018-09-19T07:59:58.796Z,28.36
2018-09-19T08:02:28.023Z,29.18
2018-09-19T08:04:57.292Z,29.01
2018-09-19T08:07:26.506Z,30.07
2018-09-19T08:09:55.748Z,29.42
2018-09-19T08:12:24.949Z,31.59
2018-09-19T08:14:54.188Z,31.54
2018-09-19T08:17:23.406Z,30.64
2018-09-19T08:19:52.902Z,29.41
2018-09-19T08:22:22.112Z,30.91
2018-09-19T08:24:51.415Z,29.98
2018-09-19T08:27:20.692Z,30.14
2018-09-19T08:29:49.990Z,28.18
2018-09-19T08:32:19.316Z,30.51
2018-09-19T08:34:48.536Z,30.20
2018-09-19T08:37:17.842Z,30.76
2018-09-19T08:39:47.067Z,28.16
2018-09-19T08:42:16.308Z,27.41
2018-09-19T08:44:45.551Z,29.28
2018-09-19T08:47:14.766Z,30.44
2018-09-19T08:49:44.022Z,31.25
2018-09-19T08:52:13.264Z,32.56
2018-09-19T08:54:42.509Z,33.18
2018-09-19T08:57:11.791Z,31.63
2018-09-19T08:59:40.991Z,33.26
2018-09-19T09:02:10.235Z,32.15
2018-09-19T09:04:39.455Z,32.28
2018-09-19T09:07:08.683Z,32.97
2018-09-19T09:09:37.947Z,33.05
2018-09-19T09:12:07.236Z,31.41
2018-09-19T09:14:36.442Z,32.23
2018-09-19T09:17:05.819Z,33.62
2018-09-19T09:19:35.093Z,31.21
2018-09-19T09:22:04.333Z,32.48
2018-09-19T09:24:33.573Z,34.65
2018-09-19T09:27:03.634Z,34.11
2018-09-19T09:29:32.748Z,33.38
2018-09-19T09:32:02.047Z,33.82
2018-09-19T09:34:31.323Z,33.10
2018-09-19T09:37:00.551Z,33.91
2018-09-19T09:39:30.015Z,33.91
2018-09-19T09:41:59.250Z,35.83
2018-09-19T09:44:28.454Z,34.19
2018-09-19T09:46:57.684Z,34.43
2018-09-19T09:49:26.914Z,33.28
2018-09-19T09:51:56.142Z,34.15
2018-09-19T09:54:25.378Z,33.08
2018-09-19T09:56:54.586Z,33.28
2018-09-19T09:59:23.829Z,33.83
2018-09-19T10:01:53.042Z,33.21
2018-09-19T10:04:22.393Z,32.65
2018-09-19T10:06:51.738Z,31.65
2018-09-19T10:09:20.943Z,33.35
2018-09-19T10:11:50.186Z,32.91
2018-09-19T10:14:19.449Z,34.49
2018-09-19T10:16:48.687Z,35.56
2018-09-19T10:19:17.987Z,34.18
2018-09-19T10:21:47.206Z,34.42
2018-09-19T10:24:16.440Z,35.78
2018-09-19T10:26:45.654Z,35.02
2018-09-19T10:29:14.910Z,34.24
2018-09-19T10:31:44.130Z,35.80
2018-09-19T10:34:13.518Z,36.13
2018-09-19T10:36:42.743Z,32.45
2018-09-19T10:39:11.944Z,33.37
2018-09-19T10:41:41.212Z,33.02
2018-09-19T10:44:10.439Z,34.71
2018-09-19T10:46:39.666Z,33.84
2018-09-19T10:49:08.942Z,34.12
2018-09-19T10:51:38.186Z,34.08
2018-09-19T10:54:07.418Z,35.68
2018-09-19T10:56:36.643Z,35.62
2018-09-19T10:59:05.857Z,34.24
2018-09-19T11:01:35.199Z,32.98
2018-09-19T11:04:04.420Z,34.44
2018-09-19T11:06:33.637Z,36.46
2018-09-19T11:09:03.707Z,34.20
2018-09-19T11:11:32.938Z,33.84
2018-09-19T11:14:02.177Z,32.03
2018-09-19T11:16:31.399Z,32.15
2018-09-19T11:19:00.652Z,33.03
2018-09-19T11:21:30.064Z,31.68
2018-09-19T11:23:59.279Z,32.50
2018-09-19T11:26:29.774Z,33.69
2018-09-19T11:28:58.975Z,32.96
2018-09-19T11:31:28.210Z,32.53
2018-09-19T11:33:57.437Z,33.64
2018-09-19T11:36:26.698Z,34.18
2018-09-19T11:38:55.923Z,32.47
2018-09-19T11:41:25.151Z,31.59
2018-09-19T11:43:54.402Z,31.89
2018-09-19T11:46:23.653Z,33.04
2018-09-19T11:48:52.896Z,31.80
2018-09-19T11:51:22.154Z,31.72
2018-09-19T11:53:51.383Z,32.34
2018-09-19T11:56:20.641Z,33.82
2018-09-19T11:58:49.859Z,32.79
2018-09-19T12:01:19.118Z,32.74
2018-09-19T12:03:48.366Z,31.92
2018-09-19T12:06:17.586Z,32.90
2018-09-19T12:08:46.845Z,32.66
2018-09-19T12:11:16.020Z,31.32
2018-09-19T12:13:45.247Z,32.36
2018-09-19T12:16:14.751Z,31.30
2018-09-19T12:18:43.995Z,32.80
2018-09-19T12:21:13.211Z,31.68
2018-09-19T12:23:42.438Z,30.69
2018-09-19T12:26:11.692Z,30.08
2018-09-19T12:28:40.906Z,33.08
2018-09-19T12:31:10.131Z,32.52
2018-09-19T12:33:39.354Z,33.03
2018-09-19T12:36:08.583Z,31.81
2018-09-19T12:38:39.028Z,32.67
2018-09-19T12:41:08.275Z,31.57
2018-09-19T12:43:37.635Z,32.97
2018-09-19T12:46:06.877Z,31.48
2018-09-19T12:48:36.114Z,30.60
2018-09-19T12:51:05.367Z,30.86
2018-09-19T12:53:34.611Z,30.39
2018-09-19T12:56:03.848Z,31.05
2018-09-19T12:58:33.133Z,31.24
2018-09-19T13:01:03.743Z,31.71
2018-09-19T13:03:34.203Z,31.65
2018-09-19T13:06:03.443Z,30.74
2018-09-19T13:08:32.711Z,32.56
2018-09-19T13:11:02.108Z,31.69
2018-09-19T13:13:31.331Z,31.97
2018-09-19T13:16:00.574Z,30.83
2018-09-19T13:18:29.838Z,29.78
2018-09-19T13:20:59.074Z,29.35
2018-09-19T13:23:28.318Z,28.68
2018-09-19T13:25:57.572Z,28.73
2018-09-19T13:28:26.837Z,28.76
2018-09-19T13:30:56.074Z,28.54
2018-09-19T13:33:25.319Z,28.26
2018-09-19T13:35:54.558Z,28.69
2018-09-19T13:38:23.781Z,27.74
2018-09-19T13:40:53.050Z,28.04
2018-09-19T13:43:22.267Z,28.08
2018-09-19T13:45:51.506Z,27.58
2018-09-19T13:48:20.741Z,27.73
2018-09-19T13:51:23.299Z,27.73
2018-09-19T13:53:52.554Z,27.57
2018-09-19T13:56:22.078Z,27.66
2018-09-19T13:58:51.353Z,27.41
2018-09-19T14:01:20.543Z,27.33
2018-09-19T14:03:49.822Z,26.73
2018-09-19T14:06:19.033Z,27.02
2018-09-19T14:08:48.274Z,27.36
2018-09-19T14:11:17.532Z,27.08
2018-09-19T14:13:46.760Z,27.16
2018-09-19T14:16:15.967Z,27.24
2018-09-19T14:18:45.281Z,26.92
2018-09-19T14:21:14.515Z,27.23
2018-09-19T14:24:14.391Z,27.10
2018-09-19T14:26:43.622Z,26.85
2018-09-19T14:29:12.843Z,26.88
2018-09-19T14:31:42.084Z,26.84
2018-09-19T14:34:11.313Z,26.96
2018-09-19T14:36:40.542Z,26.67
2018-09-19T14:39:09.802Z,26.76
2018-09-19T14:41:39.037Z,27.03
2018-09-19T14:44:08.258Z,26.94
2018-09-19T14:46:37.682Z,27.04
2018-09-19T14:49:07.474Z,26.96
2018-09-19T14:51:36.798Z,26.67
2018-09-19T14:54:07.240Z,26.67
2018-09-19T14:56:36.410Z,26.59
2018-09-19T14:59:05.689Z,26.30
2018-09-19T15:01:34.923Z,26.47
2018-09-19T15:04:05.530Z,26.19
2018-09-19T15:06:34.747Z,26.18
2018-09-19T15:09:04.731Z,26.36
2018-09-19T15:11:33.958Z,26.18
2018-09-19T15:14:03.183Z,26.12
2018-09-19T15:21:30.168Z,25.67
2018-09-19T15:23:59.368Z,25.61
2018-09-19T15:26:29.750Z,25.53
2018-09-19T15:28:58.966Z,25.53
2018-09-19T15:31:28.286Z,25.74
2018-09-19T15:33:57.547Z,25.80
2018-09-19T15:36:26.811Z,25.57
2018-09-19T15:38:56.112Z,25.41
2018-09-19T15:41:25.358Z,24.65
2018-09-19T15:43:54.655Z,24.80
2018-09-19T15:46:23.971Z,24.54
2018-09-19T15:48:53.214Z,24.64
2018-09-19T15:51:22.451Z,24.33
2018-09-19T15:53:51.774Z,24.50
2018-09-19T15:56:20.994Z,24.22
2018-09-19T15:58:50.222Z,24.01
2018-09-19T16:01:19.554Z,23.78
2018-09-19T16:03:48.779Z,23.55
2018-09-19T16:06:18.045Z,23.37
2018-09-19T16:08:47.262Z,23.45
2018-09-19T16:11:16.525Z,23.51
2018-09-19T16:13:45.795Z,23.39
2018-09-19T16:16:15.046Z,23.35
2018-09-19T16:18:44.306Z,23.28
2018-09-19T16:21:13.535Z,23.15
2018-09-19T16:23:43.016Z,23.06
2018-09-19T16:26:12.481Z,22.97
2018-09-19T16:28:41.719Z,22.91
2018-09-19T16:31:11.402Z,22.72
2018-09-19T16:33:40.623Z,22.66
2018-09-19T16:36:09.856Z,22.57
2018-09-19T16:38:39.086Z,22.40
2018-09-19T16:41:08.323Z,22.39
2018-09-19T16:43:37.596Z,22.26
2018-09-19T16:48:34.762Z,22.05
2018-09-19T16:51:04.120Z,21.91
2018-09-19T16:53:33.461Z,21.64
2018-09-19T16:56:02.689Z,21.46
2018-09-19T16:58:31.926Z,21.66
2018-09-19T17:01:01.151Z,21.32
2018-09-19T17:03:30.357Z,20.98
2018-09-19T17:05:59.598Z,20.86
2018-09-19T17:08:28.834Z,21.30
2018-09-19T17:10:58.074Z,21.23
2018-09-19T17:13:27.306Z,21.11
2018-09-19T17:15:56.538Z,20.96
2018-09-19T17:18:26.016Z,20.50
2018-09-19T17:20:55.239Z,20.24
2018-09-19T17:23:24.478Z,20.09
2018-09-19T17:25:53.769Z,19.92
2018-09-19T17:28:22.966Z,19.89
2018-09-19T17:30:52.214Z,19.74
2018-09-19T17:33:21.500Z,19.69
2018-09-19T17:35:50.680Z,19.65
2018-09-19T17:38:19.971Z,19.58
2018-09-19T17:40:49.338Z,19.49
2018-09-19T17:43:18.574Z,19.35
2018-09-19T17:45:47.999Z,19.33
2018-09-19T17:48:17.422Z,19.12
2018-09-19T17:50:46.637Z,18.83
2018-09-19T17:53:15.868Z,18.65
2018-09-19T17:55:45.106Z,18.54
2018-09-19T17:58:14.393Z,18.41
2018-09-19T18:00:43.652Z,18.63
2018-09-19T18:03:12.954Z,18.64
2018-09-19T18:05:42.257Z,18.49
2018-09-19T18:08:11.513Z,18.54
2018-09-19T18:10:40.715Z,18.24
2018-09-19T18:13:09.994Z,18.18
2018-09-19T18:15:39.231Z,18.02
2018-09-19T18:18:08.480Z,17.85
2018-09-19T18:20:37.738Z,17.72
2018-09-19T18:23:07.000Z,17.55
2018-09-19T18:25:36.368Z,17.44
2018-09-19T18:28:05.626Z,17.40
2018-09-19T18:30:34.862Z,17.36
2018-09-19T18:33:04.732Z,17.22
2018-09-19T18:35:34.014Z,17.22
2018-09-19T18:38:03.278Z,17.14
2018-09-19T18:40:32.524Z,17.08
2018-09-19T18:43:01.738Z,17.05
2018-09-19T18:45:31.163Z,16.89
2018-09-19T18:48:00.806Z,17.23
2018-09-19T18:50:31.291Z,16.90
2018-09-19T18:53:00.559Z,16.73
2018-09-19T18:55:29.863Z,16.73
2018-09-19T18:57:59.099Z,16.66
2018-09-19T19:00:28.326Z,16.53
2018-09-19T19:02:57.592Z,16.57
2018-09-19T19:05:26.851Z,16.45
2018-09-19T19:07:56.155Z,16.36
2018-09-19T19:10:25.331Z,16.30
2018-09-19T19:12:54.538Z,16.42
2018-09-19T19:15:23.790Z,16.21
2018-09-19T19:17:53.022Z,16.19
2018-09-19T19:20:22.252Z,16.24
2018-09-19T19:22:51.475Z,16.12
2018-09-19T19:25:20.715Z,16.23
2018-09-19T19:27:49.943Z,16.05
2018-09-19T19:30:19.481Z,15.87
2018-09-19T19:32:48.695Z,15.80
2018-09-19T19:35:17.928Z,15.83
2018-09-19T19:37:47.276Z,15.72
2018-09-19T19:40:16.419Z,15.70
2018-09-19T19:42:45.646Z,15.64
2018-09-19T19:45:15.039Z,15.54
2018-09-19T19:47:44.261Z,15.50
2018-09-19T19:50:14.619Z,15.49
2018-09-19T19:52:43.894Z,15.43
2018-09-19T19:55:13.114Z,15.40
2018-09-19T19:57:42.392Z,15.59
2018-09-19T20:00:11.595Z,15.47
2018-09-19T20:02:40.982Z,15.33
2018-09-19T20:05:10.202Z,15.24
2018-09-19T20:07:39.451Z,15.21
2018-09-19T20:10:08.690Z,15.63
2018-09-19T20:12:38.140Z,15.33
2018-09-19T20:15:07.356Z,15.17
2018-09-19T20:17:36.595Z,15.13
2018-09-19T20:20:05.882Z,14.99
2018-09-19T20:22:35.122Z,14.93
2018-09-19T20:25:04.538Z,14.86
2018-09-19T20:27:33.811Z,14.90
2018-09-19T20:30:03.035Z,14.83
2018-09-19T20:32:32.283Z,14.79
2018-09-19T20:35:01.504Z,15.05
2018-09-19T20:37:30.754Z,14.84
2018-09-19T20:40:00.139Z,14.91
2018-09-19T20:42:29.355Z,15.00
2018-09-19T20:44:58.602Z,15.57
2018-09-19T20:47:27.847Z,15.30
2018-09-19T20:49:57.063Z,15.13
2018-09-19T20:52:26.287Z,14.88
2018-09-19T20:54:55.702Z,14.68
2018-09-19T20:57:25.038Z,14.56
2018-09-19T20:59:54.309Z,14.47
2018-09-19T21:02:23.544Z,14.41
2018-09-19T21:04:52.779Z,14.37
2018-09-19T21:07:22.023Z,14.32
2018-09-19T21:09:51.266Z,14.28
2018-09-19T21:12:20.515Z,14.21
2018-09-19T21:14:49.810Z,14.26
2018-09-19T21:17:19.034Z,14.27
2018-09-19T21:19:48.414Z,14.22
2018-09-19T21:22:17.790Z,14.18
2018-09-19T21:24:46.881Z,14.16
2018-09-19T21:27:16.226Z,14.10
2018-09-19T21:29:45.469Z,14.10
2018-09-19T21:32:14.727Z,14.08
2018-09-19T21:34:43.939Z,14.07
2018-09-19T21:37:13.178Z,14.02
2018-09-19T21:39:42.404Z,13.96
2018-09-19T21:42:11.642Z,13.94
2018-09-19T21:44:40.861Z,13.88
2018-09-19T21:47:10.095Z,13.87
2018-09-19T21:49:39.339Z,13.91
2018-09-19T21:52:08.567Z,13.78
2018-09-19T21:54:37.822Z,13.78
2018-09-19T21:57:07.151Z,13.73
2018-09-19T21:59:36.936Z,13.68
2018-09-19T22:02:06.210Z,13.57
2018-09-19T22:04:35.455Z,13.57
2018-09-19T22:07:04.699Z,13.52
2018-09-19T22:09:33.947Z,13.47
2018-09-19T22:12:03.162Z,13.46
2018-09-19T22:14:32.395Z,13.38
2018-09-19T22:17:01.651Z,13.38
2018-09-19T22:19:30.887Z,13.39
2018-09-19T22:22:00.119Z,13.35
2018-09-19T22:24:29.350Z,13.37
2018-09-19T22:26:58.583Z,13.39
2018-09-19T22:29:27.837Z,13.36
2018-09-19T22:31:57.089Z,13.26
2018-09-19T22:34:26.357Z,13.17
2018-09-19T22:36:55.629Z,13.16
2018-09-19T22:39:24.855Z,13.12
2018-09-19T22:41:54.082Z,13.09
2018-09-19T22:44:23.302Z,13.03
2018-09-19T22:46:52.778Z,13.02
2018-09-19T22:49:22.018Z,12.97
2018-09-19T22:51:51.283Z,12.97
2018-09-19T22:54:20.618Z,12.93
2018-09-19T22:56:49.859Z,12.91
2018-09-19T22:59:19.078Z,12.86
2018-09-19T23:01:48.324Z,12.82
2018-09-19T23:04:17.558Z,12.83
2018-09-19T23:06:46.809Z,12.77
2018-09-19T23:09:16.038Z,12.70
2018-09-19T23:11:46.519Z,12.61
2018-09-19T23:14:15.779Z,12.49
2018-09-19T23:16:45.018Z,12.46
2018-09-19T23:19:14.279Z,12.48
2018-09-19T23:21:43.491Z,12.44
2018-09-19T23:24:13.346Z,12.40
2018-09-19T23:26:42.575Z,12.40
2018-09-19T23:29:11.804Z,12.32
2018-09-19T23:31:41.026Z,12.38
2018-09-19T23:34:10.254Z,12.34
2018-09-19T23:36:39.484Z,12.42
2018-09-19T23:39:10.386Z,12.31
2018-09-19T23:41:39.615Z,12.28
2018-09-19T23:44:08.885Z,12.21
2018-09-19T23:46:38.111Z,12.16
2018-09-19T23:49:07.613Z,12.22
2018-09-19T23:51:36.874Z,12.18
2018-09-19T23:54:06.223Z,12.05
2018-09-19T23:56:35.439Z,11.97
2018-09-19T23:59:04.675Z,11.92
